createdAt,value
2023-02-14T10:22:43.402Z,102686.34
2023-02-14T10:29:18.182Z,102688.97
2023-02-14T10:32:28.520Z,102687.25
2023-02-14T10:35:42.898Z,102685.53
2023-02-14T10:38:52.744Z,102676.75
2023-02-14T10:42:01.340Z,102672.38
2023-02-14T10:45:16.387Z,102668.84
2023-02-14T10:48:26.233Z,102667.09
2023-02-14T10:51:36.702Z,102662.75
2023-02-14T10:54:41.167Z,102664.47
2023-02-14T10:57:53.586Z,102652.31
2023-02-14T11:01:06.803Z,102659.38
2023-02-14T11:04:13.258Z,102653.22
2023-02-14T11:07:17.317Z,102657.59
2023-02-14T11:10:24.260Z,102649.75
2023-02-14T11:13:34.967Z,102653.19
2023-02-14T11:16:44.270Z,102659.28
2023-02-14T11:19:58.762Z,102654.94
2023-02-14T11:23:01.508Z,102656.69
2023-02-14T11:26:06.634Z,102643.56
2023-02-14T11:29:15.765Z,102653.25
2023-02-14T11:32:25.710Z,102641.88
2023-02-14T11:35:34.664Z,102641.00
2023-02-14T11:38:40.140Z,102635.75
2023-02-14T11:41:51.086Z,102622.63
2023-02-14T11:44:56.213Z,102630.47
2023-02-14T11:48:19.994Z,102627.84
2023-02-14T11:51:34.535Z,102621.75
2023-02-14T11:54:38.509Z,102620.84
2023-02-14T11:57:41.286Z,102618.25
2023-02-14T12:00:52.715Z,102615.63
2023-02-14T12:04:00.713Z,102612.94
2023-02-14T12:07:18.175Z,102609.47
2023-02-14T12:10:25.006Z,102605.94
2023-02-14T12:13:27.633Z,102598.94
2023-02-14T12:16:36.159Z,102599.81
2023-02-14T12:19:46.673Z,102595.41
2023-02-14T12:22:56.106Z,102592.81
2023-02-14T12:26:04.046Z,102597.19
2023-02-14T12:29:13.521Z,102599.84
2023-02-14T12:32:22.266Z,102595.41
2023-02-14T12:35:43.676Z,102595.44
2023-02-14T12:38:56.764Z,102587.56
2023-02-14T12:42:07.973Z,102586.69
2023-02-14T12:45:18.338Z,102579.72
2023-02-14T12:48:28.308Z,102574.47
2023-02-14T12:51:43.359Z,102568.31
2023-02-14T12:54:58.439Z,102560.44
2023-02-14T12:58:06.593Z,102553.50
2023-02-14T13:01:38.552Z,102555.22
2023-02-14T13:04:53.959Z,102547.31
2023-02-14T13:08:15.643Z,102536.78
2023-02-14T13:11:29.159Z,102534.16
2023-02-14T13:14:49.456Z,102537.66
2023-02-14T13:17:57.770Z,102527.13
2023-02-14T13:21:03.985Z,102528.06
2023-02-14T13:24:16.356Z,102527.25
2023-02-14T13:27:23.196Z,102532.50
2023-02-14T13:30:32.535Z,102535.13
2023-02-14T13:33:38.253Z,102532.50
2023-02-14T13:36:42.379Z,102529.00
2023-02-14T13:39:50.085Z,102529.00
2023-02-14T13:42:55.264Z,102525.53
2023-02-14T13:45:57.777Z,102514.19
2023-02-14T13:49:02.663Z,102511.56
2023-02-14T13:52:07.322Z,102509.78
2023-02-14T13:55:18.789Z,102513.28
2023-02-14T13:58:22.018Z,102511.56
2023-02-14T14:01:36.217Z,102514.13
2023-02-14T14:04:38.975Z,102513.28
2023-02-14T14:07:41.462Z,102511.53
2023-02-14T14:10:47.564Z,102508.91
2023-02-14T14:13:58.074Z,102513.28
2023-02-14T14:17:02.310Z,102514.16
2023-02-14T14:20:38.944Z,102503.66
2023-02-14T14:23:45.601Z,102501.91
2023-02-14T14:26:50.075Z,102504.53
2023-02-14T14:29:55.518Z,102497.53
